Time;durP1;ratioP1;P1;durP2;ratioP2;P2;SDS_P1;SDS_P2;PMS_P1;PMS_P2;Temp;Humidity;BMP_temperature;BMP_pressure;BME280_temperature;BME280_humidity;BME280_pressure;Samples;Min_cycle;Max_cycle;Signal;HPM_P1;HPM_P2
2023/03/26 00:00:55;;;;;;;31.08;4.40;;;9.10;99.90;;;;;;4952313;28;20394;-76
2023/03/26 00:03:21;;;;;;;33.20;3.92;;;9.10;99.90;;;;;;4961789;28;20034;-75
2023/03/26 00:05:47;;;;;;;34.28;4.78;;;9.20;99.90;;;;;;4960940;28;20057;-76
2023/03/26 00:08:14;;;;;;;32.20;3.45;;;9.20;99.90;;;;;;4943652;28;20137;-75
2023/03/26 00:10:40;;;;;;;21.63;4.15;;;9.20;99.90;;;;;;4944782;28;20381;-76
2023/03/26 00:13:07;;;;;;;28.23;3.38;;;9.10;99.90;;;;;;4960076;28;20406;-76
2023/03/26 00:15:34;;;;;;;17.85;2.95;;;9.10;99.90;;;;;;4978850;28;20570;-76
2023/03/26 00:18:00;;;;;;;37.33;3.97;;;9.20;99.90;;;;;;4963006;28;20477;-75
2023/03/26 00:20:28;;;;;;;24.00;2.78;;;9.20;99.90;;;;;;4963222;28;20477;-76
2023/03/26 00:22:54;;;;;;;24.08;3.22;;;9.10;99.90;;;;;;4960747;28;20053;-76
2023/03/26 00:25:22;;;;;;;24.73;2.85;;;9.20;99.90;;;;;;4963248;28;20483;-75
2023/03/26 00:27:48;;;;;;;26.17;4.15;;;9.20;99.90;;;;;;4950423;28;20045;-75
2023/03/26 00:30:15;;;;;;;20.85;2.70;;;9.20;99.90;;;;;;4960601;28;20022;-76
2023/03/26 00:32:41;;;;;;;21.77;3.38;;;9.20;99.90;;;;;;4942860;28;20134;-76
2023/03/26 00:35:07;;;;;;;22.35;3.25;;;9.30;99.90;;;;;;4941163;28;20027;-75
2023/03/26 00:37:33;;;;;;;25.40;4.20;;;9.40;99.90;;;;;;4972459;28;20030;-76
2023/03/26 00:40:09;;;;;;;19.42;2.78;;;9.50;99.90;;;;;;4977518;28;20490;-76
2023/03/26 00:42:36;;;;;;;23.40;3.00;;;9.60;99.90;;;;;;4960321;28;20431;-76
2023/03/26 00:45:06;;;;;;;21.20;4.13;;;9.60;99.90;;;;;;4949288;28;20241;-75
2023/03/26 00:47:32;;;;;;;17.75;2.90;;;9.70;99.90;;;;;;4963274;28;20155;-77
2023/03/26 00:49:58;;;;;;;21.27;2.70;;;9.70;99.90;;;;;;4960574;28;20219;-77
2023/03/26 00:52:27;;;;;;;22.65;2.60;;;9.70;99.90;;;;;;4962190;28;20034;-76
2023/03/26 00:54:54;;;;;;;19.23;2.80;;;9.80;99.90;;;;;;4978993;28;20117;-76
2023/03/26 00:57:20;;;;;;;19.75;2.60;;;9.80;99.90;;;;;;4979925;28;20490;-76
2023/03/26 00:59:47;;;;;;;15.13;2.38;;;9.80;99.90;;;;;;4952664;28;20106;-76
2023/03/26 01:02:16;;;;;;;18.75;3.00;;;9.70;99.90;;;;;;4954036;28;20053;-77
2023/03/26 01:04:46;;;;;;;29.13;3.53;;;9.60;99.90;;;;;;4958905;28;20041;-76
2023/03/26 01:07:20;;;;;;;22.85;3.10;;;9.60;99.90;;;;;;4959355;28;20045;-76
2023/03/26 01:09:51;;;;;;;21.17;2.47;;;9.50;99.90;;;;;;4957928;28;20060;-75
2023/03/26 01:12:26;;;;;;;17.80;2.90;;;9.40;99.90;;;;;;4971311;28;20090;-75
2023/03/26 01:14:55;;;;;;;20.65;2.78;;;9.40;99.90;;;;;;4979631;28;20237;-75
2023/03/26 01:17:22;;;;;;;17.58;2.28;;;9.30;99.90;;;;;;4962956;28;20062;-76
2023/03/26 01:20:11;;;;;;;16.58;3.10;;;9.30;99.90;;;;;;4961330;28;20030;-76
2023/03/26 01:22:38;;;;;;;10.80;2.20;;;9.20;99.90;;;;;;4959789;28;20093;-76
2023/03/26 01:25:06;;;;;;;20.60;2.42;;;9.10;99.90;;;;;;4959910;28;20034;-75
2023/03/26 01:27:47;;;;;;;9.48;2.30;;;9.10;99.90;;;;;;4961290;28;20247;-75
2023/03/26 01:30:34;;;;;;;19.65;2.15;;;9.10;99.90;;;;;;4972108;28;20080;-76
2023/03/26 01:33:18;;;;;;;13.85;2.20;;;9.10;99.90;;;;;;4962818;28;20034;-76
2023/03/26 01:35:53;;;;;;;12.05;2.42;;;9.10;99.90;;;;;;4976234;28;20129;-76
2023/03/26 01:38:34;;;;;;;15.20;2.30;;;9.00;99.90;;;;;;4959698;28;20529;-76
2023/03/26 01:41:10;;;;;;;9.90;1.52;;;8.90;99.90;;;;;;4961317;28;20130;-77
2023/03/26 01:44:08;;;;;;;8.32;1.60;;;8.90;99.90;;;;;;4960412;28;20023;-76
2023/03/26 01:46:35;;;;;;;7.60;1.58;;;8.80;99.90;;;;;;4977843;28;20050;-76
2023/03/26 01:49:03;;;;;;;6.88;1.30;;;8.80;99.90;;;;;;4957867;28;20379;-76
2023/03/26 01:51:32;;;;;;;8.98;0.90;;;8.70;99.90;;;;;;4959608;28;20038;-76
2023/03/26 01:53:59;;;;;;;8.43;1.10;;;8.70;99.90;;;;;;4961351;28;20030;-77
2023/03/26 01:56:52;;;;;;;6.00;1.42;;;8.70;99.90;;;;;;4964708;28;20984;-76
2023/03/26 01:59:43;;;;;;;8.65;1.17;;;8.60;99.90;;;;;;4955023;28;20140;-76
2023/03/26 02:02:12;;;;;;;3.33;0.80;;;8.60;99.90;;;;;;4958716;28;20034;-76
2023/03/26 02:04:51;;;;;;;5.25;1.15;;;8.60;99.90;;;;;;4937540;28;20038;-76
2023/03/26 02:07:24;;;;;;;10.30;1.23;;;8.50;99.90;;;;;;4922218;29;20051;-76
2023/03/26 02:09:57;;;;;;;6.90;1.48;;;8.60;99.90;;;;;;4935730;28;20360;-77
2023/03/26 02:12:23;;;;;;;11.60;1.25;;;8.50;99.90;;;;;;4939865;28;20062;-76
2023/03/26 02:14:50;;;;;;;5.05;1.30;;;8.50;99.90;;;;;;4939679;28;20473;-77
2023/03/26 02:17:17;;;;;;;6.60;1.63;;;8.50;99.90;;;;;;4938261;28;20498;-77
2023/03/26 02:19:44;;;;;;;8.40;1.63;;;8.40;99.90;;;;;;4938696;28;20031;-78
2023/03/26 02:22:14;;;;;;;7.53;1.33;;;8.30;99.90;;;;;;4938903;28;20031;-77
2023/03/26 02:24:41;;;;;;;5.47;1.25;;;8.30;99.90;;;;;;4923241;29;20167;-77
2023/03/26 02:27:06;;;;;;;11.48;1.92;;;8.20;99.90;;;;;;4928339;28;20080;-77
2023/03/26 02:29:38;;;;;;;11.75;1.42;;;8.20;99.90;;;;;;4935216;28;20454;-78
2023/03/26 02:32:12;;;;;;;9.77;1.63;;;8.10;99.90;;;;;;4939807;28;20039;-78
2023/03/26 02:34:38;;;;;;;11.57;1.75;;;8.10;99.90;;;;;;4940258;28;20037;-77
2023/03/26 02:37:04;;;;;;;11.43;1.58;;;8.10;99.90;;;;;;4940632;28;20183;-77
2023/03/26 02:39:29;;;;;;;9.85;1.60;;;8.10;99.90;;;;;;4955870;28;20512;-77
2023/03/26 02:41:55;;;;;;;11.15;1.45;;;8.10;99.90;;;;;;4941559;28;20050;-78
2023/03/26 02:44:21;;;;;;;11.15;1.40;;;8.00;99.90;;;;;;4941143;28;20446;-76
2023/03/26 02:46:46;;;;;;;7.50;1.52;;;8.00;99.90;;;;;;4941405;28;20229;-76
2023/03/26 02:49:12;;;;;;;13.65;1.63;;;8.00;99.90;;;;;;4941861;28;20030;-77
2023/03/26 02:51:38;;;;;;;18.55;1.52;;;7.90;99.90;;;;;;4941295;28;20034;-76
2023/03/26 02:54:05;;;;;;;6.35;1.60;;;7.90;99.90;;;;;;4939165;28;20136;-77
2023/03/26 02:56:31;;;;;;;10.60;1.60;;;7.90;99.90;;;;;;4938093;28;20035;-77
2023/03/26 02:58:57;;;;;;;12.32;1.50;;;7.90;99.90;;;;;;4952153;28;20394;-77
2023/03/26 03:01:23;;;;;;;10.32;1.67;;;7.90;99.90;;;;;;4941271;28;20110;-77
2023/03/26 03:03:48;;;;;;;5.13;1.30;;;8.00;99.90;;;;;;4942013;28;20057;-78
2023/03/26 03:06:17;;;;;;;9.77;1.50;;;7.90;99.90;;;;;;4940894;28;20035;-77
2023/03/26 03:08:44;;;;;;;10.18;1.60;;;7.90;99.90;;;;;;4947080;28;20047;-77
2023/03/26 03:11:16;;;;;;;6.40;1.40;;;7.90;99.90;;;;;;4924016;29;20620;-77
2023/03/26 03:13:43;;;;;;;9.32;1.92;;;7.90;99.90;;;;;;4930094;28;20053;-78
2023/03/26 03:16:09;;;;;;;7.63;1.58;;;7.80;99.90;;;;;;4950997;28;20038;-77
2023/03/26 03:18:36;;;;;;;7.85;1.77;;;7.90;99.90;;;;;;4941208;28;20510;-77
2023/03/26 03:21:03;;;;;;;7.65;1.50;;;7.80;99.90;;;;;;4939676;28;20623;-76
2023/03/26 03:23:29;;;;;;;7.03;1.90;;;7.80;99.90;;;;;;4941342;28;20258;-78
2023/03/26 03:25:56;;;;;;;11.15;1.48;;;7.80;99.90;;;;;;4931198;29;20058;-77
2023/03/26 03:28:23;;;;;;;12.32;2.28;;;7.70;99.90;;;;;;4948786;28;20126;-76
2023/03/26 03:30:52;;;;;;;6.07;1.25;;;7.70;99.90;;;;;;4942990;28;20454;-77
2023/03/26 03:33:19;;;;;;;9.93;1.77;;;7.80;99.90;;;;;;4961891;28;20031;-76
2023/03/26 03:35:47;;;;;;;13.07;1.70;;;7.80;99.90;;;;;;4942575;28;20137;-77
2023/03/26 03:38:14;;;;;;;4.20;1.13;;;7.80;99.90;;;;;;4943870;28;20114;-77
2023/03/26 03:40:39;;;;;;;8.68;1.40;;;7.90;99.90;;;;;;4944397;28;20039;-77
2023/03/26 03:43:05;;;;;;;8.20;1.30;;;7.80;99.90;;;;;;4943900;28;20482;-76
2023/03/26 03:45:31;;;;;;;5.90;1.30;;;7.80;99.90;;;;;;4942780;28;20566;-77
2023/03/26 03:47:58;;;;;;;7.43;1.10;;;7.80;99.90;;;;;;4941050;28;20418;-77
2023/03/26 03:50:24;;;;;;;7.45;1.50;;;7.80;99.90;;;;;;4943141;28;20494;-76
2023/03/26 03:52:49;;;;;;;7.70;1.50;;;7.70;99.90;;;;;;4944609;28;20145;-76
2023/03/26 03:55:16;;;;;;;6.93;1.02;;;7.60;99.90;;;;;;4956236;28;20035;-76
2023/03/26 03:57:41;;;;;;;4.90;1.00;;;7.50;99.90;;;;;;4942111;29;20058;-77
2023/03/26 04:00:08;;;;;;;9.35;1.60;;;7.50;99.90;;;;;;4925851;28;20517;-76
2023/03/26 04:02:34;;;;;;;9.27;1.30;;;7.40;99.90;;;;;;4956300;28;20091;-75
2023/03/26 04:05:01;;;;;;;3.63;1.20;;;7.40;99.90;;;;;;4954093;28;20041;-76
2023/03/26 04:07:32;;;;;;;6.28;1.00;;;7.30;99.90;;;;;;4956447;28;20051;-76
2023/03/26 04:10:02;;;;;;;7.22;1.63;;;7.20;99.90;;;;;;4957176;28;20034;-76
2023/03/26 04:12:28;;;;;;;3.35;1.00;;;7.20;99.90;;;;;;4957005;28;20045;-76
2023/03/26 04:14:55;;;;;;;3.15;1.00;;;7.20;99.90;;;;;;4958571;28;20023;-76
2023/03/26 04:17:21;;;;;;;5.35;0.90;;;7.20;99.90;;;;;;4969272;28;20034;-76
2023/03/26 04:19:49;;;;;;;3.08;0.90;;;7.20;99.90;;;;;;4977349;28;20028;-75
2023/03/26 04:22:18;;;;;;;3.33;1.20;;;7.30;99.90;;;;;;4966404;28;20494;-75
2023/03/26 04:24:44;;;;;;;5.15;0.90;;;7.30;99.90;;;;;;4956991;28;20034;-76
2023/03/26 04:27:14;;;;;;;3.85;1.00;;;7.30;99.90;;;;;;4959976;28;20046;-76
2023/03/26 04:29:43;;;;;;;10.53;1.43;;;7.40;99.90;;;;;;4960741;28;20030;-76
2023/03/26 04:32:25;;;;;;;3.67;1.73;;;7.40;99.90;;;;;;4948500;28;20350;-76
2023/03/26 04:34:51;;;;;;;;;;;7.40;99.90;;;;;;4966890;28;20576;-75
2023/03/26 04:37:26;;;;;;;2.72;0.90;;;7.40;99.90;;;;;;4957938;28;20358;-75
2023/03/26 04:39:53;;;;;;;4.32;1.40;;;7.40;99.90;;;;;;4958781;28;20031;-76
2023/03/26 04:42:19;;;;;;;3.20;0.90;;;7.30;99.90;;;;;;4959549;28;20061;-76
2023/03/26 04:44:49;;;;;;;2.38;0.80;;;7.20;99.90;;;;;;4975153;28;20494;-75
2023/03/26 04:47:16;;;;;;;2.90;0.93;;;7.10;99.90;;;;;;4958731;28;20046;-75
2023/03/26 04:49:43;;;;;;;4.43;1.20;;;7.10;99.90;;;;;;4959048;28;20030;-75
2023/03/26 04:52:10;;;;;;;3.65;1.50;;;7.10;99.90;;;;;;4958245;28;20030;-76
2023/03/26 04:54:37;;;;;;;3.03;0.98;;;7.10;99.90;;;;;;4955760;28;20029;-76
2023/03/26 04:57:05;;;;;;;2.65;0.80;;;7.10;99.90;;;;;;4950925;28;20123;-76
2023/03/26 04:59:36;;;;;;;3.80;1.02;;;7.10;99.90;;;;;;4959598;28;20521;-76
2023/03/26 05:02:04;;;;;;;4.07;1.00;;;7.10;99.90;;;;;;4954602;28;20828;-77
2023/03/26 05:04:30;;;;;;;2.53;1.17;;;7.10;99.90;;;;;;4954492;28;20047;-76
2023/03/26 05:06:57;;;;;;;3.58;0.98;;;7.10;99.90;;;;;;4968097;28;20056;-76
2023/03/26 05:09:26;;;;;;;5.22;1.80;;;7.10;99.90;;;;;;4941926;28;20034;-77
2023/03/26 05:11:52;;;;;;;3.85;0.90;;;7.10;99.90;;;;;;4976062;28;20018;-76
2023/03/26 05:14:18;;;;;;;2.08;1.65;;;7.10;99.90;;;;;;4948280;28;20098;-76
2023/03/26 05:16:46;;;;;;;4.18;0.82;;;7.00;99.90;;;;;;4944240;28;20496;-76
2023/03/26 05:19:12;;;;;;;4.50;0.90;;;7.00;99.90;;;;;;4958441;28;20034;-76
2023/03/26 05:21:38;;;;;;;1.98;0.80;;;7.00;99.90;;;;;;4957697;28;20125;-75
2023/03/26 05:24:05;;;;;;;4.60;0.90;;;7.10;99.90;;;;;;4956594;28;20030;-76
2023/03/26 05:26:31;;;;;;;4.10;1.15;;;7.10;99.90;;;;;;4941336;28;20721;-76
2023/03/26 05:28:57;;;;;;;2.30;0.70;;;7.20;99.90;;;;;;4958687;28;20192;-76
2023/03/26 05:31:22;;;;;;;1.88;0.82;;;7.30;99.90;;;;;;4970993;28;20598;-76
2023/03/26 05:33:49;;;;;;;7.10;1.23;;;7.30;99.90;;;;;;4975534;28;20190;-76
2023/03/26 05:36:16;;;;;;;1.27;0.70;;;7.30;99.90;;;;;;4959568;28;20034;-75
2023/03/26 05:38:46;;;;;;;2.90;0.80;;;7.30;99.90;;;;;;4957456;28;20600;-76
2023/03/26 05:41:12;;;;;;;2.92;0.80;;;7.30;99.90;;;;;;4978045;28;20091;-76
2023/03/26 05:43:38;;;;;;;4.78;0.70;;;7.30;99.90;;;;;;4944117;28;20440;-76
2023/03/26 05:46:04;;;;;;;1.73;0.80;;;7.30;99.90;;;;;;4957245;28;20066;-76
2023/03/26 05:48:30;;;;;;;1.45;0.63;;;7.30;99.90;;;;;;4958056;28;20032;-76
2023/03/26 05:50:57;;;;;;;3.08;1.00;;;7.30;99.90;;;;;;4978604;28;20577;-75
2023/03/26 05:53:25;;;;;;;3.90;0.98;;;7.30;99.90;;;;;;4960543;28;20038;-75
2023/03/26 05:55:57;;;;;;;3.17;0.88;;;7.30;99.90;;;;;;4960845;28;20485;-75
2023/03/26 05:58:31;;;;;;;1.08;0.52;;;7.30;99.90;;;;;;4979716;28;20379;-76
2023/03/26 06:00:58;;;;;;;2.40;0.80;;;7.30;99.90;;;;;;4958662;28;20022;-76
2023/03/26 06:03:24;;;;;;;4.15;0.63;;;7.30;99.90;;;;;;4956772;28;20038;-75
2023/03/26 06:05:50;;;;;;;3.60;1.10;;;7.30;99.90;;;;;;4959121;28;20029;-76
2023/03/26 06:08:15;;;;;;;17.08;7.00;;;7.40;99.90;;;;;;4972285;28;20643;-76
2023/03/26 06:10:41;;;;;;;2.13;1.15;;;7.40;99.90;;;;;;4961089;28;20109;-75
2023/03/26 06:13:07;;;;;;;3.97;0.85;;;7.30;99.90;;;;;;4979448;28;20381;-76
2023/03/26 06:15:32;;;;;;;3.90;0.80;;;7.30;99.90;;;;;;4950116;28;20030;-75
2023/03/26 06:18:00;;;;;;;3.17;0.63;;;7.30;99.90;;;;;;4959049;28;20080;-75
2023/03/26 06:20:26;;;;;;;3.83;0.70;;;7.30;99.90;;;;;;4955780;28;20112;-76
2023/03/26 06:22:51;;;;;;;2.83;0.60;;;7.40;99.90;;;;;;4958204;28;20034;-76
2023/03/26 06:25:17;;;;;;;2.53;0.77;;;7.30;99.90;;;;;;4956430;28;20042;-77
2023/03/26 06:27:43;;;;;;;3.17;0.80;;;7.40;99.90;;;;;;4956709;28;20141;-76
2023/03/26 06:30:09;;;;;;;1.58;0.85;;;7.40;99.90;;;;;;4955859;28;20034;-75
2023/03/26 06:32:35;;;;;;;1.75;0.70;;;7.40;99.90;;;;;;4953169;28;20153;-75
2023/03/26 06:35:01;;;;;;;4.40;1.00;;;7.50;99.90;;;;;;4946941;28;20114;-75
2023/03/26 06:37:26;;;;;;;3.63;0.88;;;7.50;99.90;;;;;;4962300;28;21043;-75
2023/03/26 06:39:52;;;;;;;3.00;0.80;;;7.50;99.90;;;;;;4949038;28;20031;-73
2023/03/26 06:42:17;;;;;;;11.55;3.53;;;7.50;99.90;;;;;;4959120;28;20038;-75
2023/03/26 06:44:43;;;;;;;2.83;1.30;;;7.50;99.90;;;;;;4963352;28;20453;-82
2023/03/26 06:47:09;;;;;;;4.35;2.63;;;7.60;99.90;;;;;;4965355;28;20074;-76
2023/03/26 06:49:36;;;;;;;1.98;1.08;;;7.60;99.90;;;;;;4967578;28;20042;-76
2023/03/26 06:52:03;;;;;;;2.05;1.45;;;7.60;99.90;;;;;;4957451;28;20046;-76
2023/03/26 06:54:28;;;;;;;2.58;1.75;;;7.60;99.90;;;;;;4978280;28;20409;-76
2023/03/26 06:56:55;;;;;;;3.30;1.10;;;7.70;99.90;;;;;;4967392;28;20034;-76
2023/03/26 06:59:20;;;;;;;1.90;1.30;;;7.70;99.90;;;;;;4947928;28;20034;-77
2023/03/26 07:01:46;;;;;;;3.67;1.08;;;7.80;99.90;;;;;;4952516;28;20553;-75
2023/03/26 07:04:12;;;;;;;3.17;1.00;;;7.80;99.90;;;;;;4966925;28;20447;-75
2023/03/26 07:06:38;;;;;;;3.47;0.93;;;7.80;99.90;;;;;;4956665;28;20035;-75
2023/03/26 07:09:03;;;;;;;1.02;0.63;;;7.90;99.90;;;;;;4954169;28;20038;-75
2023/03/26 07:11:29;;;;;;;1.52;0.65;;;7.90;99.90;;;;;;4960766;28;20456;-75
2023/03/26 07:13:58;;;;;;;2.35;0.90;;;7.90;99.90;;;;;;4960971;28;20038;-75
2023/03/26 07:16:24;;;;;;;2.22;0.70;;;7.90;99.90;;;;;;4960647;28;20450;-76
2023/03/26 07:18:50;;;;;;;1.95;0.75;;;7.80;99.90;;;;;;4959278;28;20080;-76
2023/03/26 07:21:16;;;;;;;0.93;0.63;;;7.80;99.90;;;;;;4960542;28;20404;-75
2023/03/26 07:23:42;;;;;;;1.48;0.85;;;7.70;99.90;;;;;;4956004;28;20030;-76
2023/03/26 07:26:35;;;;;;;2.33;0.90;;;7.80;99.90;;;;;;4976609;28;20045;-75
2023/03/26 07:29:07;;;;;;;1.80;0.88;;;7.80;99.90;;;;;;4950198;28;20050;-76
2023/03/26 07:31:38;;;;;;;2.50;1.00;;;7.80;99.90;;;;;;4953572;28;20113;-75
2023/03/26 07:34:18;;;;;;;2.92;0.90;;;7.90;99.90;;;;;;4971659;28;20026;-76
2023/03/26 07:37:20;;;;;;;0.88;0.50;;;7.90;99.90;;;;;;4954796;28;20026;-75
2023/03/26 07:39:56;;;;;;;;;;;8.00;99.90;;;;;;4960267;28;20402;-75
2023/03/26 07:42:57;;;;;;;2.08;0.90;;;8.00;99.90;;;;;;4974607;28;19914;-75
2023/03/26 07:45:25;;;;;;;1.42;1.00;;;8.10;99.90;;;;;;4936960;28;20062;-75
2023/03/26 07:47:52;;;;;;;3.08;1.10;;;8.10;99.90;;;;;;4970371;28;20085;-75
2023/03/26 07:50:21;;;;;;;2.72;1.65;;;8.20;99.90;;;;;;4946134;28;20065;-75
2023/03/26 07:52:48;;;;;;;3.20;1.10;;;8.20;99.90;;;;;;4949774;28;20062;-75
2023/03/26 07:55:15;;;;;;;3.08;0.70;;;8.30;99.90;;;;;;4951757;28;20027;-75
2023/03/26 07:58:19;;;;;;;1.50;0.88;;;8.30;99.90;;;;;;4961619;28;20033;-75
2023/03/26 08:00:55;;;;;;;4.05;1.00;;;8.30;99.90;;;;;;4978965;28;20116;-75
2023/03/26 08:04:05;;;;;;;1.30;0.70;;;8.40;99.90;;;;;;4929588;29;20098;-75
2023/03/26 08:06:38;;;;;;;1.95;0.90;;;8.40;99.90;;;;;;4942839;28;20035;-75
2023/03/26 08:09:09;;;;;;;1.52;0.70;;;8.20;99.90;;;;;;4932475;28;20050;-75
2023/03/26 08:12:03;;;;;;;1.92;0.73;;;8.20;99.90;;;;;;4925603;28;20035;-74
2023/03/26 08:15:00;;;;;;;2.70;0.70;;;8.20;99.90;;;;;;4946488;28;20438;-75
2023/03/26 08:17:39;;;;;;;2.67;0.90;;;8.20;99.90;;;;;;4922482;28;20039;-75
2023/03/26 08:20:33;;;;;;;3.33;0.80;;;8.20;99.90;;;;;;4924301;28;20086;-73
2023/03/26 08:23:14;;;;;;;2.47;1.02;;;8.30;99.90;;;;;;4896229;28;20552;-76
2023/03/26 08:25:43;;;;;;;1.70;0.75;;;8.30;99.90;;;;;;4935537;28;20018;-76
2023/03/26 08:28:20;;;;;;;1.25;0.80;;;8.40;99.90;;;;;;4932206;28;20050;-73
2023/03/26 08:30:46;;;;;;;1.95;0.90;;;8.60;99.90;;;;;;4942131;28;20431;-76
2023/03/26 08:33:17;;;;;;;2.95;0.90;;;8.70;99.90;;;;;;4925863;28;20541;-76
2023/03/26 08:35:44;;;;;;;3.33;0.90;;;8.80;99.90;;;;;;4928138;28;20038;-76
2023/03/26 08:38:12;;;;;;;3.83;1.00;;;8.80;99.90;;;;;;4928067;28;20046;-75
2023/03/26 08:40:48;;;;;;;1.48;0.80;;;8.90;99.90;;;;;;4945195;28;20286;-74
2023/03/26 08:43:22;;;;;;;2.20;0.80;;;9.10;99.90;;;;;;4946062;28;20138;-75
2023/03/26 08:45:57;;;;;;;3.42;0.77;;;9.20;99.90;;;;;;4918131;28;20207;-74
2023/03/26 08:48:34;;;;;;;3.22;0.90;;;9.20;99.90;;;;;;4930229;28;20042;-74
2023/03/26 08:51:18;;;;;;;3.33;0.80;;;9.20;99.90;;;;;;4935472;28;20227;-74
2023/03/26 08:54:09;;;;;;;2.80;1.05;;;9.40;99.90;;;;;;4915951;28;20046;-75
2023/03/26 08:56:50;;;;;;;1.33;0.73;;;9.50;99.90;;;;;;4919261;28;20065;-75
2023/03/26 08:59:33;;;;;;;4.03;1.10;;;9.50;99.90;;;;;;4920138;28;20039;-74
2023/03/26 09:02:17;;;;;;;2.47;0.70;;;9.70;99.90;;;;;;4940775;28;20062;-74
2023/03/26 09:05:02;;;;;;;2.17;0.90;;;9.70;99.90;;;;;;4959677;28;20065;-75
2023/03/26 09:07:59;;;;;;;1.92;0.70;;;9.60;99.90;;;;;;4956618;28;20112;-75
2023/03/26 09:10:40;;;;;;;2.53;1.10;;;9.50;99.90;;;;;;4954230;28;20030;-74
2023/03/26 09:13:36;;;;;;;1.58;0.82;;;9.50;99.90;;;;;;4971120;28;20414;-75
2023/03/26 09:16:25;;;;;;;2.63;0.88;;;9.40;99.90;;;;;;4945678;28;20133;-75
2023/03/26 09:19:08;;;;;;;1.75;0.70;;;9.40;99.90;;;;;;4947637;28;20169;-75
2023/03/26 09:22:01;;;;;;;8.73;3.22;;;9.30;99.90;;;;;;4966582;28;20414;-75
2023/03/26 09:24:51;;;;;;;10.82;2.90;;;9.40;99.90;;;;;;4966232;28;20731;-74
2023/03/26 09:27:38;;;;;;;4.05;1.40;;;9.50;99.90;;;;;;4950865;28;20042;-75
2023/03/26 09:30:33;;;;;;;3.10;0.70;;;9.80;99.90;;;;;;4972765;28;20033;-75
2023/03/26 09:33:10;;;;;;;1.70;0.90;;;9.70;99.90;;;;;;4968892;28;20027;-75
2023/03/26 09:35:36;;;;;;;2.38;0.90;;;10.00;99.90;;;;;;4978347;28;20022;-75
2023/03/26 09:38:32;;;;;;;1.02;0.70;;;10.00;99.90;;;;;;4967670;28;20045;-75
2023/03/26 09:41:20;;;;;;;2.75;1.10;;;9.90;99.90;;;;;;4953573;28;20073;-77
2023/03/26 09:44:04;;;;;;;3.05;0.80;;;9.80;99.90;;;;;;4961804;28;20118;-75
2023/03/26 09:46:50;;;;;;;3.80;0.93;;;9.80;99.90;;;;;;4964111;28;20029;-81
2023/03/26 09:49:40;;;;;;;3.92;1.08;;;10.10;99.90;;;;;;4950409;28;20031;-79
2023/03/26 09:52:18;;;;;;;0.93;0.80;;;10.30;99.90;;;;;;4961028;28;20118;-75
2023/03/26 09:55:31;;;;;;;1.00;0.80;;;10.20;99.90;;;;;;4968553;28;20085;-74
2023/03/26 09:58:33;;;;;;;3.95;1.05;;;9.90;99.90;;;;;;4908006;29;20210;-75
2023/03/26 10:01:23;;;;;;;2.47;0.80;;;9.70;99.90;;;;;;4880105;28;20534;-76
2023/03/26 10:04:08;;;;;;;2.67;0.90;;;9.70;99.90;;;;;;4934189;28;20384;-76
2023/03/26 10:06:57;;;;;;;2.67;0.85;;;9.60;99.90;;;;;;4937660;28;21373;-75
2023/03/26 10:09:55;;;;;;;3.08;0.80;;;9.60;99.90;;;;;;4919810;28;20558;-75
2023/03/26 10:12:36;;;;;;;0.55;0.52;;;9.70;99.90;;;;;;4934563;28;20117;-78
2023/03/26 10:15:10;;;;;;;2.53;0.68;;;9.70;99.90;;;;;;4945331;28;20045;-75
2023/03/26 10:17:51;;;;;;;1.63;0.90;;;9.90;99.90;;;;;;4949228;28;20632;-75
2023/03/26 10:20:31;;;;;;;1.23;0.70;;;9.60;99.90;;;;;;4941822;28;20912;-76
2023/03/26 10:23:11;;;;;;;2.47;0.67;;;9.80;99.90;;;;;;4940047;28;20280;-75
2023/03/26 10:25:48;;;;;;;2.88;0.60;;;10.10;99.90;;;;;;4938769;28;20551;-75
2023/03/26 10:28:43;;;;;;;1.67;0.68;;;10.30;99.90;;;;;;4949033;28;20043;-74
2023/03/26 10:31:23;;;;;;;0.88;0.52;;;10.60;99.90;;;;;;4939540;28;20034;-74
2023/03/26 10:34:31;;;;;;;1.33;0.63;;;11.00;99.90;;;;;;4943116;28;20434;-72
2023/03/26 10:37:13;;;;;;;3.47;1.63;;;11.50;99.90;;;;;;4896402;28;20051;-72
2023/03/26 10:39:56;;;;;;;23.70;10.90;;;11.80;99.90;;;;;;4944664;28;20487;-72
2023/03/26 10:42:34;;;;;;;43.67;22.95;;;11.80;99.90;;;;;;4938260;28;20812;-73
2023/03/26 10:45:17;;;;;;;18.83;12.13;;;11.80;99.90;;;;;;4941047;28;20038;-73
2023/03/26 10:48:02;;;;;;;23.23;16.08;;;12.10;99.90;;;;;;4930033;28;20035;-73
2023/03/26 10:50:48;;;;;;;5.10;4.40;;;12.50;99.90;;;;;;4934025;28;20633;-73
2023/03/26 10:53:27;;;;;;;3.70;3.20;;;12.70;99.90;;;;;;4943809;28;20042;-73
2023/03/26 10:56:01;;;;;;;2.90;2.60;;;12.60;99.90;;;;;;4926707;28;20683;-73
2023/03/26 10:58:28;;;;;;;4.00;3.20;;;12.50;99.90;;;;;;4948118;28;20478;-73
2023/03/26 11:01:09;;;;;;;4.55;3.22;;;12.60;99.90;;;;;;4954587;28;20031;-73
2023/03/26 11:03:50;;;;;;;1.45;0.80;;;12.40;99.90;;;;;;4961363;28;20093;-73
2023/03/26 11:06:46;;;;;;;1.15;0.80;;;12.40;99.90;;;;;;4960833;28;20034;-73
2023/03/26 11:09:12;;;;;;;2.75;2.10;;;12.60;99.90;;;;;;4961460;28;20933;-73
2023/03/26 11:12:28;;;;;;;2.67;1.77;;;13.20;99.90;;;;;;4946479;28;20034;-73
2023/03/26 11:15:32;;;;;;;2.08;1.50;;;13.20;99.90;;;;;;4923682;28;20104;-73
2023/03/26 11:18:27;;;;;;;3.17;1.52;;;14.00;99.90;;;;;;4885729;29;20036;-73
2023/03/26 11:21:19;;;;;;;0.93;0.50;;;14.20;97.60;;;;;;4961971;28;20825;-73
2023/03/26 11:24:02;;;;;;;1.05;0.90;;;14.10;90.50;;;;;;4955174;28;20043;-73
2023/03/26 11:26:43;;;;;;;2.22;1.15;;;14.00;94.30;;;;;;4971198;28;20034;-72
2023/03/26 11:29:45;;;;;;;1.27;1.10;;;14.10;97.00;;;;;;4960341;28;20183;-73
2023/03/26 11:32:19;;;;;;;1.50;1.10;;;13.70;94.70;;;;;;4975055;28;20061;-73
2023/03/26 11:35:15;;;;;;;3.22;1.88;;;13.20;94.90;;;;;;4974941;28;20137;-73
2023/03/26 11:37:45;;;;;;;2.67;1.98;;;13.10;96.30;;;;;;4951917;28;20094;-72
2023/03/26 11:40:19;;;;;;;1.67;1.10;;;13.20;98.60;;;;;;4967107;28;20031;-73
2023/03/26 11:42:46;;;;;;;1.95;1.70;;;13.20;99.90;;;;;;4976567;28;20977;-73
2023/03/26 11:45:17;;;;;;;2.80;1.20;;;13.10;99.90;;;;;;4948594;28;20153;-73
2023/03/26 11:47:48;;;;;;;;;;;13.20;99.90;;;;;;4981586;28;20111;-72
2023/03/26 11:50:22;;;;;;;1.00;0.52;;;12.80;99.90;;;;;;4980475;28;19914;-73
2023/03/26 11:52:48;;;;;;;1.20;0.52;;;12.90;96.60;;;;;;4963398;28;20478;-72
2023/03/26 11:55:14;;;;;;;0.90;0.60;;;12.90;96.70;;;;;;4980839;28;20169;-72
2023/03/26 11:57:46;;;;;;;2.60;0.70;;;13.00;99.90;;;;;;4977016;28;20030;-73
2023/03/26 12:00:21;;;;;;;0.63;0.60;;;13.20;99.00;;;;;;4978925;28;20760;-73
2023/03/26 12:02:48;;;;;;;1.42;0.60;;;13.30;99.80;;;;;;4979085;28;20093;-73
2023/03/26 12:05:17;;;;;;;0.50;0.50;;;13.40;93.60;;;;;;4961077;28;20034;-74
2023/03/26 12:07:56;;;;;;;2.97;0.60;;;13.40;99.90;;;;;;4977139;28;20065;-73
2023/03/26 12:10:27;;;;;;;0.90;0.52;;;13.20;98.50;;;;;;4944141;28;20056;-73
2023/03/26 12:12:59;;;;;;;0.47;0.40;;;13.20;95.60;;;;;;4960429;28;20030;-72
2023/03/26 12:15:26;;;;;;;0.65;0.40;;;13.00;98.60;;;;;;4971794;28;20026;-72
2023/03/26 12:17:55;;;;;;;0.68;0.50;;;13.10;99.90;;;;;;4956668;28;20046;-73
2023/03/26 12:20:24;;;;;;;1.15;0.50;;;13.10;99.20;;;;;;4967616;28;20037;-73
2023/03/26 12:22:50;;;;;;;1.42;0.60;;;13.50;98.40;;;;;;4979258;28;20049;-73
2023/03/26 12:25:18;;;;;;;1.45;0.68;;;13.60;96.40;;;;;;4979524;28;20928;-73
2023/03/26 12:27:46;;;;;;;1.02;0.70;;;13.70;99.90;;;;;;4997574;28;20049;-73
2023/03/26 12:30:29;;;;;;;0.47;0.40;;;13.90;96.90;;;;;;4982804;28;20022;-74
2023/03/26 12:33:03;;;;;;;0.80;0.50;;;13.70;93.30;;;;;;4967039;28;20995;-75
2023/03/26 12:35:34;;;;;;;1.90;0.60;;;14.30;95.80;;;;;;4945459;28;20403;-76
2023/03/26 12:38:21;;;;;;;1.45;0.47;;;14.30;89.20;;;;;;4961034;28;20035;-74
2023/03/26 12:40:48;;;;;;;1.15;0.50;;;14.50;90.20;;;;;;4958275;28;20033;-75
2023/03/26 12:43:38;;;;;;;0.77;0.40;;;14.70;93.30;;;;;;4962114;28;20027;-75
2023/03/26 12:46:29;;;;;;;1.00;0.50;;;14.90;88.60;;;;;;4976577;28;20887;-76
2023/03/26 12:49:00;;;;;;;1.38;0.50;;;14.60;89.10;;;;;;4979089;28;20995;-74
2023/03/26 12:51:44;;;;;;;1.38;0.60;;;14.00;81.40;;;;;;4977199;28;20402;-75
2023/03/26 12:54:14;;;;;;;1.55;0.50;;;13.70;93.00;;;;;;4957268;28;20114;-75
2023/03/26 12:56:43;;;;;;;1.30;0.63;;;13.00;94.70;;;;;;4960229;28;20382;-75
2023/03/26 12:59:31;;;;;;;0.50;0.40;;;12.80;99.70;;;;;;4959943;28;20128;-75
2023/03/26 13:02:16;;;;;;;2.05;0.50;;;12.40;99.90;;;;;;4971968;28;20129;-75
2023/03/26 13:05:03;;;;;;;3.08;0.70;;;12.00;99.90;;;;;;4978198;28;20034;-75
2023/03/26 13:07:43;;;;;;;3.70;0.70;;;11.90;99.90;;;;;;4961047;28;20073;-74
2023/03/26 13:10:26;;;;;;;0.95;0.60;;;12.00;99.90;;;;;;4960463;28;20031;-75
2023/03/26 13:13:10;;;;;;;4.13;0.77;;;12.70;99.90;;;;;;4273442;28;10020596;-74
2023/03/26 13:15:51;;;;;;;2.28;0.60;;;13.30;99.90;;;;;;4943787;28;20049;-75
2023/03/26 13:18:20;;;;;;;2.40;0.70;;;13.50;95.20;;;;;;4979658;28;20077;-75
2023/03/26 13:21:09;;;;;;;1.60;0.75;;;14.00;93.00;;;;;;4977403;28;20026;-75
2023/03/26 13:23:47;;;;;;;1.02;0.60;;;14.30;86.80;;;;;;4941058;28;20042;-75
2023/03/26 13:26:29;;;;;;;1.30;0.70;;;14.10;85.50;;;;;;4976654;28;20026;-75